Moccasin, Arizona
Current Conditions -  °F | °C
As of 3:35 AM on Tuesday 21 Oct 2014 (Local Time) from KAZC Reporting Station
Overcast Overcast  
Wind Chill: 51°   Ceiling: 9500
Heat Index: 51°   Visibility: 10mi
Dew Point: 40°   Wind: 3mph
Humidity: 68%   Direction: 140°SE
Pressure: 30.05"   Gusts: NA
Location:  36.9484°N, 112.529°W
Report Text: KAZC 211035Z AUTO 14003KT 10SM SCT070 OVC095 10/05 A3005 RMK AO2 T01030047
Loading
Personal Weather Stations






























Interactive Weather Map
Tropical Storm Tracking
New forecast layout! Learn more

10-Day Weather Forecast

Advertisements
Track Severe Weather on mobile